Time;durP1;ratioP1;P1;durP2;ratioP2;P2;SDS_P1;SDS_P2;PMS_P1;PMS_P2;Temp;Humidity;BMP_temperature;BMP_pressure;BME280_temperature;BME280_humidity;BME280_pressure;Samples;Min_cycle;Max_cycle;Signal;HPM_P1;HPM_P2
2022/12/01 00:00:29;;;;;;;38.10;22.10;;;;;;;5.62;100.00;102499.94;5071770;28;20029;-69
2022/12/01 00:02:54;;;;;;;36.13;20.70;;;;;;;5.60;100.00;102499.22;5072768;28;20024;-69
2022/12/01 00:05:19;;;;;;;36.53;21.50;;;;;;;5.64;100.00;102492.56;5072969;28;20031;-69
2022/12/01 00:07:47;;;;;;;37.88;21.17;;;;;;;5.67;100.00;102492.25;5072086;28;20052;-69
2022/12/01 00:10:24;;;;;;;35.83;21.02;;;;;;;5.70;100.00;102491.13;5073327;28;20519;-70
2022/12/01 00:12:53;;;;;;;38.67;20.25;;;;;;;5.75;100.00;102497.72;5073017;28;20454;-69
2022/12/01 00:15:19;;;;;;;34.30;20.20;;;;;;;5.77;100.00;102497.56;5070270;28;20430;-69
2022/12/01 00:17:46;;;;;;;38.47;21.67;;;;;;;5.77;100.00;102494.88;5073002;28;20031;-69
2022/12/01 00:20:12;;;;;;;35.15;21.38;;;;;;;5.75;100.00;102492.34;5073110;28;20043;-69
2022/12/01 00:22:41;;;;;;;35.78;20.75;;;;;;;5.77;100.00;102486.81;5071817;28;20111;-70
2022/12/01 00:25:06;;;;;;;36.47;21.17;;;;;;;5.78;100.00;102486.66;5071617;28;20075;-69
2022/12/01 00:27:32;;;;;;;35.20;21.40;;;;;;;5.76;100.00;102485.97;5072735;28;20056;-69
2022/12/01 00:29:57;;;;;;;37.63;21.42;;;;;;;5.76;100.00;102491.34;5072991;28;20127;-69
2022/12/01 00:32:22;;;;;;;40.28;22.23;;;;;;;5.77;100.00;102489.50;5072036;28;20028;-69
2022/12/01 00:34:47;;;;;;;36.65;22.10;;;;;;;5.74;100.00;102487.97;5070985;28;20536;-70
2022/12/01 00:37:13;;;;;;;40.40;22.13;;;;;;;5.72;100.00;102489.94;5072267;28;20036;-69
2022/12/01 00:39:38;;;;;;;43.15;22.02;;;;;;;5.75;100.00;102488.81;5069997;28;20111;-69
2022/12/01 00:42:03;;;;;;;38.03;22.58;;;;;;;5.71;100.00;102482.91;5070728;28;20028;-69
2022/12/01 00:44:28;;;;;;;39.00;22.90;;;;;;;5.71;100.00;102493.66;5070954;28;20107;-69
2022/12/01 00:46:54;;;;;;;37.00;22.17;;;;;;;5.70;100.00;102493.78;5073369;28;20029;-69
2022/12/01 00:49:19;;;;;;;37.15;21.40;;;;;;;5.74;100.00;102487.97;5072478;28;20036;-69
2022/12/01 00:51:44;;;;;;;38.55;21.38;;;;;;;5.75;100.00;102489.66;5073384;28;20456;-69
2022/12/01 00:54:10;;;;;;;43.13;22.98;;;;;;;5.74;100.00;102496.03;5069169;28;20039;-69
2022/12/01 00:56:35;;;;;;;40.25;22.10;;;;;;;5.74;100.00;102493.34;5072287;28;20425;-69
2022/12/01 00:59:00;;;;;;;44.63;23.67;;;;;;;5.72;100.00;102489.09;5072122;28;20037;-69
2022/12/01 01:01:25;;;;;;;42.38;23.70;;;;;;;5.72;100.00;102489.94;5068291;28;20108;-70
2022/12/01 01:03:51;;;;;;;48.95;24.73;;;;;;;5.70;100.00;102491.13;5071205;28;20043;-69
2022/12/01 01:06:16;;;;;;;47.25;24.77;;;;;;;5.68;100.00;102489.41;5072505;28;20056;-70
2022/12/01 01:08:41;;;;;;;48.63;25.65;;;;;;;5.66;100.00;102490.56;5072269;28;20071;-69
2022/12/01 01:11:07;;;;;;;49.55;23.50;;;;;;;5.69;100.00;102501.00;5071437;28;20481;-69
2022/12/01 01:13:34;;;;;;;46.58;23.85;;;;;;;5.72;100.00;102505.22;5070302;28;20035;-69
2022/12/01 01:16:02;;;;;;;49.78;25.38;;;;;;;5.73;100.00;102504.25;5053079;28;20029;-69
2022/12/01 01:18:28;;;;;;;49.95;25.08;;;;;;;5.74;100.00;102501.41;5064379;28;20043;-68
2022/12/01 01:21:05;;;;;;;50.33;24.17;;;;;;;5.77;100.00;102503.78;5072435;28;20464;-69
2022/12/01 01:23:31;;;;;;;48.80;24.75;;;;;;;5.76;100.00;102509.31;5069523;28;20029;-69
2022/12/01 01:26:03;;;;;;;51.10;24.60;;;;;;;5.75;100.00;102511.16;5070711;28;20028;-69
2022/12/01 01:28:30;;;;;;;53.45;24.70;;;;;;;5.73;100.00;102506.91;5070616;28;20024;-69
2022/12/01 01:30:55;;;;;;;49.58;24.58;;;;;;;5.74;100.00;102514.81;5071667;28;20032;-68
2022/12/01 01:33:20;;;;;;;45.40;24.00;;;;;;;5.73;100.00;102515.81;5070409;28;20033;-69
2022/12/01 01:35:46;;;;;;;51.55;24.45;;;;;;;5.75;100.00;102518.34;5072271;28;20082;-69
2022/12/01 01:38:11;;;;;;;51.75;23.58;;;;;;;5.71;100.00;102515.13;5071728;28;20032;-69
2022/12/01 01:40:46;;;;;;;47.42;23.83;;;;;;;5.72;100.00;102522.19;5070480;28;20468;-69
2022/12/01 01:43:15;;;;;;;43.70;23.52;;;;;;;5.70;100.00;102524.19;5070537;28;20040;-69
2022/12/01 01:45:41;;;;;;;47.53;23.23;;;;;;;5.72;100.00;102527.53;5071615;28;20424;-69
2022/12/01 01:48:08;;;;;;;41.85;21.08;;;;;;;5.75;100.00;102521.03;5070717;28;20120;-69
2022/12/01 01:50:34;;;;;;;43.33;22.20;;;;;;;5.77;100.00;102525.28;5070102;28;20103;-69
2022/12/01 01:53:03;;;;;;;43.72;21.88;;;;;;;5.79;100.00;102523.25;5071139;28;20028;-70
2022/12/01 01:55:32;;;;;;;45.78;22.35;;;;;;;5.82;100.00;102524.81;5069888;28;20040;-70
2022/12/01 01:57:58;;;;;;;48.75;22.90;;;;;;;5.82;100.00;102527.50;5071285;28;20061;-70
2022/12/01 02:00:24;;;;;;;47.60;22.45;;;;;;;5.81;100.00;102521.28;5067420;28;20052;-70
2022/12/01 02:02:50;;;;;;;44.90;22.83;;;;;;;5.78;100.00;102528.78;5063262;28;20593;-70
2022/12/01 02:05:25;;;;;;;48.95;23.27;;;;;;;5.78;100.00;102529.66;5068727;28;20035;-69
2022/12/01 02:07:53;;;;;;;47.17;24.52;;;;;;;5.79;100.00;102522.44;5070196;28;20043;-70
2022/12/01 02:10:21;;;;;;;43.25;22.25;;;;;;;5.79;100.00;102523.25;5068381;28;20024;-70
2022/12/01 02:12:58;;;;;;;45.22;21.90;;;;;;;5.78;100.00;102523.41;5071156;28;20074;-69
2022/12/01 02:15:36;;;;;;;46.20;22.77;;;;;;;5.78;100.00;102526.97;5070456;28;20063;-67
2022/12/01 02:18:27;;;;;;;45.60;23.48;;;;;;;5.82;100.00;102522.13;5071246;28;20060;-67
2022/12/01 02:21:14;;;;;;;45.55;22.75;;;;;;;5.81;100.00;102523.97;5067840;28;20055;-67
2022/12/01 02:23:45;;;;;;;43.97;23.05;;;;;;;5.79;100.00;102525.13;5069810;28;20021;-67
2022/12/01 02:26:35;;;;;;;47.63;23.48;;;;;;;5.76;100.00;102526.25;5057870;28;20021;-67
2022/12/01 02:29:06;;;;;;;50.63;23.33;;;;;;;5.74;100.00;102519.38;5071105;28;20468;-67
2022/12/01 02:31:37;;;;;;;46.35;23.38;;;;;;;5.75;100.00;102524.59;5068614;28;20048;-67
2022/12/01 02:34:16;;;;;;;45.88;23.05;;;;;;;5.74;100.00;102525.56;5070982;28;20043;-67
2022/12/01 02:36:51;;;;;;;46.05;22.35;;;;;;;5.73;100.00;102526.56;5071150;28;20069;-67
2022/12/01 02:39:28;;;;;;;43.80;23.17;;;;;;;5.71;100.00;102525.88;5070331;28;20490;-67
2022/12/01 02:42:04;;;;;;;47.67;23.35;;;;;;;5.73;100.00;102528.41;5071098;28;20103;-67
2022/12/01 02:44:36;;;;;;;52.75;24.17;;;;;;;5.73;100.00;102526.56;5075146;28;20024;-67
2022/12/01 02:47:09;;;;;;;53.50;25.02;;;;;;;5.74;100.00;102522.88;5074556;28;20029;-67
2022/12/01 02:49:41;;;;;;;48.63;22.88;;;;;;;5.73;100.00;102529.25;5066660;28;20024;-68
2022/12/01 02:52:09;;;;;;;;;;;;;;;5.79;100.00;102525.13;5057122;28;20025;-67
2022/12/01 02:54:36;;;;;;;47.92;22.60;;;;;;;5.72;100.00;102522.19;5074634;28;19909;-67
2022/12/01 02:57:01;;;;;;;46.88;21.88;;;;;;;5.67;100.00;102519.09;5053462;28;20137;-67
2022/12/01 02:59:27;;;;;;;50.22;23.73;;;;;;;5.66;100.00;102523.66;5071869;28;20170;-69
2022/12/01 03:02:10;;;;;;;51.65;25.05;;;;;;;5.69;100.00;102525.16;5072057;28;20035;-69
2022/12/01 03:04:51;;;;;;;52.00;24.35;;;;;;;5.73;100.00;102523.88;5074689;28;20039;-69
2022/12/01 03:07:19;;;;;;;49.55;24.80;;;;;;;5.74;100.00;102522.88;5073778;28;20069;-67
2022/12/01 03:09:50;;;;;;;51.55;25.75;;;;;;;5.77;100.00;102524.44;5075251;28;20036;-67
2022/12/01 03:12:22;;;;;;;49.22;23.67;;;;;;;5.75;100.00;102524.59;5073655;28;20423;-67
2022/12/01 03:15:08;;;;;;;48.80;24.60;;;;;;;5.76;100.00;102528.09;5074117;28;20037;-67
2022/12/01 03:17:45;;;;;;;47.22;22.85;;;;;;;5.73;100.00;102521.19;5070957;28;20037;-67
2022/12/01 03:20:21;;;;;;;46.38;23.30;;;;;;;5.74;100.00;102525.56;5074287;28;20033;-67
2022/12/01 03:22:54;;;;;;;51.33;24.60;;;;;;;5.75;100.00;102526.41;5072715;28;20480;-70
2022/12/01 03:25:23;;;;;;;43.28;23.55;;;;;;;5.74;100.00;102525.56;5075135;28;20028;-67
2022/12/01 03:27:55;;;;;;;47.90;24.77;;;;;;;5.77;100.00;102527.13;5072113;28;20089;-67
2022/12/01 03:30:20;;;;;;;48.58;23.48;;;;;;;5.77;100.00;102527.13;5073513;28;20089;-67
2022/12/01 03:32:50;;;;;;;47.10;24.42;;;;;;;5.73;100.00;102523.88;5073735;28;20111;-67
2022/12/01 03:35:25;;;;;;;45.70;24.38;;;;;;;5.75;100.00;102523.72;5073184;28;20400;-67
2022/12/01 03:38:01;;;;;;;47.75;24.23;;;;;;;5.74;100.00;102525.56;5072337;28;20064;-67
2022/12/01 03:40:29;;;;;;;45.90;23.40;;;;;;;5.76;100.00;102528.09;5074786;28;20067;-69
2022/12/01 03:43:00;;;;;;;43.42;23.48;;;;;;;5.72;100.00;102524.84;5072858;28;20029;-69
2022/12/01 03:45:38;;;;;;;48.53;22.83;;;;;;;5.71;100.00;102520.50;5074903;28;20055;-69
2022/12/01 03:48:04;;;;;;;45.58;24.25;;;;;;;5.70;100.00;102524.19;5072718;28;20029;-69
2022/12/01 03:50:47;;;;;;;45.88;24.95;;;;;;;5.69;100.00;102522.47;5072969;28;20031;-69
2022/12/01 03:53:26;;;;;;;44.78;24.30;;;;;;;5.70;100.00;102520.66;5073514;28;20040;-69
2022/12/01 03:56:01;;;;;;;44.50;23.55;;;;;;;5.69;100.00;102530.53;5072632;28;20154;-69
2022/12/01 03:58:35;;;;;;;44.33;24.17;;;;;;;5.68;100.00;102535.06;5071966;28;20048;-69
2022/12/01 04:01:02;;;;;;;46.38;23.75;;;;;;;5.69;100.00;102533.22;5069694;28;20486;-69
2022/12/01 04:03:27;;;;;;;46.58;24.77;;;;;;;5.67;100.00;102529.84;5074979;28;20035;-69
2022/12/01 04:05:53;;;;;;;45.95;24.17;;;;;;;5.66;100.00;102528.16;5082838;28;20064;-70
2022/12/01 04:08:18;;;;;;;43.65;23.30;;;;;;;5.67;100.00;102524.47;5072432;28;20041;-70
2022/12/01 04:10:43;;;;;;;44.05;24.55;;;;;;;5.69;100.00;102527.84;5072685;28;20028;-70
2022/12/01 04:13:21;;;;;;;43.45;23.88;;;;;;;5.71;100.00;102531.25;5071993;28;20115;-70
2022/12/01 04:15:53;;;;;;;44.28;23.80;;;;;;;5.76;100.00;102528.94;5074062;28;20029;-69
2022/12/01 04:18:19;;;;;;;43.78;24.08;;;;;;;5.80;100.00;102527.66;5071413;28;20054;-69
2022/12/01 04:20:45;;;;;;;44.92;24.20;;;;;;;5.81;100.00;102532.03;5073193;28;20107;-69
2022/12/01 04:23:58;;;;;;;50.00;24.92;;;;;;;5.81;100.00;102529.34;5073281;28;20028;-69
2022/12/01 04:26:00;;;;;;;45.85;23.15;;;;;;;5.80;100.00;102524.97;5068023;28;20074;-70
2022/12/01 04:28:26;;;;;;;46.60;23.20;;;;;;;5.80;100.00;102537.56;5070335;28;20059;-67
2022/12/01 04:30:51;;;;;;;44.60;23.20;;;;;;;5.78;100.00;102532.34;5071737;28;20436;-67
2022/12/01 04:33:16;;;;;;;44.30;24.50;;;;;;;5.79;100.00;102535.84;5071787;28;20036;-67
2022/12/01 04:35:42;;;;;;;41.53;23.27;;;;;;;5.77;100.00;102529.81;5074086;28;20479;-67
2022/12/01 04:38:07;;;;;;;42.60;24.35;;;;;;;5.77;100.00;102532.50;5070006;28;20035;-67
2022/12/01 04:40:32;;;;;;;43.80;23.85;;;;;;;5.76;100.00;102533.47;5054430;28;20028;-69
2022/12/01 04:42:58;;;;;;;43.22;24.08;;;;;;;5.76;100.00;102537.00;5072487;28;20039;-69
2022/12/01 04:45:23;;;;;;;46.22;24.80;;;;;;;5.77;100.00;102530.63;5073649;28;20482;-69
2022/12/01 04:47:51;;;;;;;42.70;22.92;;;;;;;5.78;100.00;102523.41;5070484;28;20107;-67
2022/12/01 04:50:16;;;;;;;46.72;24.42;;;;;;;5.80;100.00;102529.50;5071909;28;20077;-67
2022/12/01 04:52:42;;;;;;;45.80;24.77;;;;;;;5.82;100.00;102532.88;5072600;28;20111;-67
2022/12/01 04:55:07;;;;;;;44.63;25.02;;;;;;;5.80;100.00;102535.72;5053816;28;20479;-67
2022/12/01 04:57:33;;;;;;;40.90;23.35;;;;;;;5.79;100.00;102534.00;5070242;28;20032;-69
2022/12/01 04:59:58;;;;;;;42.72;23.73;;;;;;;5.76;100.00;102523.56;5069282;28;20421;-68
2022/12/01 05:02:23;;;;;;;42.03;23.50;;;;;;;5.74;100.00;102530.94;5070330;28;20044;-68
2022/12/01 05:04:48;;;;;;;44.25;23.35;;;;;;;5.70;100.00;102529.56;5071596;28;20117;-68
2022/12/01 05:07:14;;;;;;;44.67;24.48;;;;;;;5.70;100.00;102523.34;5070439;28;20036;-68
2022/12/01 05:09:39;;;;;;;44.75;24.10;;;;;;;5.75;100.00;102531.78;5073203;28;20028;-68
2022/12/01 05:12:04;;;;;;;42.97;23.92;;;;;;;5.72;100.00;102527.53;5070261;28;20037;-68
2022/12/01 05:14:30;;;;;;;41.25;24.05;;;;;;;5.74;100.00;102530.13;5072903;28;20055;-68
2022/12/01 05:16:56;;;;;;;42.85;24.42;;;;;;;5.76;100.00;102518.19;5070407;28;20113;-69
2022/12/01 05:22:06;;;;;;;46.45;24.55;;;;;;;5.80;100.00;102524.97;5071520;28;20103;-68
2022/12/01 05:24:31;;;;;;;44.88;23.85;;;;;;;5.79;100.00;102534.00;5071982;28;20048;-68
2022/12/01 05:26:56;;;;;;;41.75;23.25;;;;;;;5.77;100.00;102527.13;5071750;28;20024;-68
2022/12/01 05:29:22;;;;;;;41.55;24.27;;;;;;;5.77;100.00;102519.06;5072918;28;20399;-68
2022/12/01 05:31:47;;;;;;;40.95;22.58;;;;;;;5.80;100.00;102534.88;5072954;28;20115;-68
2022/12/01 05:34:12;;;;;;;41.50;22.45;;;;;;;5.80;100.00;102532.19;5065841;28;20033;-68
2022/12/01 05:36:38;;;;;;;40.63;22.17;;;;;;;5.82;100.00;102538.25;5054146;28;20034;-68
2022/12/01 05:39:04;;;;;;;43.15;23.58;;;;;;;5.82;100.00;102539.06;5071707;28;20113;-68
2022/12/01 05:41:29;;;;;;;41.03;22.70;;;;;;;5.79;100.00;102541.22;5071608;28;20054;-69
2022/12/01 05:43:54;;;;;;;41.58;24.00;;;;;;;5.77;100.00;102544.06;5071354;28;20037;-68
2022/12/01 05:46:19;;;;;;;45.78;24.52;;;;;;;5.78;100.00;102542.22;5069903;28;20068;-68
2022/12/01 05:48:46;;;;;;;44.13;23.50;;;;;;;5.77;100.00;102533.31;5071666;28;20028;-68
2022/12/01 05:51:14;;;;;;;44.05;23.25;;;;;;;5.79;100.00;102535.84;5072494;28;20387;-68
2022/12/01 05:53:39;;;;;;;43.75;23.58;;;;;;;5.78;100.00;102537.72;5071855;28;20033;-68
2022/12/01 05:56:06;;;;;;;38.55;22.00;;;;;;;5.78;100.00;102537.72;5070911;28;20540;-68
2022/12/01 05:58:31;;;;;;;42.65;23.15;;;;;;;5.77;100.00;102538.69;5071452;28;20059;-68
2022/12/01 06:00:57;;;;;;;41.30;22.85;;;;;;;5.77;100.00;102543.25;5069063;28;20040;-68
2022/12/01 06:03:23;;;;;;;43.38;23.45;;;;;;;5.78;100.00;102540.41;5070726;28;20099;-68
2022/12/01 06:05:48;;;;;;;43.28;23.25;;;;;;;5.78;100.00;102539.53;5071205;28;20028;-68
2022/12/01 06:08:14;;;;;;;41.08;22.65;;;;;;;5.77;100.00;102541.38;5070481;28;20442;-68
2022/12/01 06:10:39;;;;;;;42.78;23.08;;;;;;;5.77;100.00;102546.75;5072427;28;20082;-68
2022/12/01 06:13:04;;;;;;;42.92;23.73;;;;;;;5.78;100.00;102543.09;5071040;28;20064;-68
2022/12/01 06:15:30;;;;;;;42.78;23.20;;;;;;;5.74;100.00;102546.22;5073151;28;20032;-68
2022/12/01 06:17:58;;;;;;;45.00;23.83;;;;;;;5.71;100.00;102542.00;5073885;28;20041;-69
2022/12/01 06:20:23;;;;;;;40.58;22.98;;;;;;;5.72;100.00;102554.41;5074225;28;20032;-69
2022/12/01 06:22:48;;;;;;;44.00;22.60;;;;;;;5.73;100.00;102534.63;5075358;28;20106;-69
2022/12/01 06:25:14;;;;;;;43.40;23.75;;;;;;;5.73;100.00;102541.84;5057179;28;20037;-69
2022/12/01 06:27:39;;;;;;;46.38;24.85;;;;;;;5.73;100.00;102545.38;5074600;28;20024;-69
2022/12/01 06:30:05;;;;;;;43.50;23.98;;;;;;;5.72;100.00;102540.97;5074785;28;20044;-70
2022/12/01 06:32:30;;;;;;;45.08;23.65;;;;;;;5.75;100.00;102545.22;5071677;28;20052;-69
2022/12/01 06:34:55;;;;;;;47.00;24.75;;;;;;;5.74;100.00;102544.38;5075195;28;20463;-69
2022/12/01 06:37:21;;;;;;;43.97;23.13;;;;;;;5.74;100.00;102540.84;5071040;28;20035;-69
2022/12/01 06:39:46;;;;;;;43.38;23.35;;;;;;;5.67;100.00;102545.97;5064587;28;20028;-69
2022/12/01 06:42:11;;;;;;;49.35;25.20;;;;;;;5.66;100.00;102545.13;5073823;28;20054;-69
2022/12/01 06:44:37;;;;;;;45.65;23.13;;;;;;;5.67;100.00;102551.34;5075595;28;20098;-69
2022/12/01 06:47:03;;;;;;;40.40;22.15;;;;;;;5.69;100.00;102549.34;5073525;28;20074;-69
2022/12/01 06:49:28;;;;;;;44.40;22.90;;;;;;;5.70;100.00;102555.56;5074312;28;20039;-69
2022/12/01 06:51:53;;;;;;;46.28;23.15;;;;;;;5.70;100.00;102551.03;5075039;28;20364;-69
2022/12/01 06:54:20;;;;;;;47.95;24.33;;;;;;;5.70;100.00;102559.09;5075374;28;20063;-69
2022/12/01 06:56:45;;;;;;;45.25;22.65;;;;;;;5.71;100.00;102563.47;5074478;28;20337;-69
2022/12/01 06:59:11;;;;;;;47.50;22.95;;;;;;;5.69;100.00;102565.44;5074491;28;20047;-69
2022/12/01 07:01:36;;;;;;;41.53;22.65;;;;;;;5.68;100.00;102563.78;5054620;28;20028;-69
2022/12/01 07:04:02;;;;;;;42.63;22.55;;;;;;;5.69;100.00;102570.81;5073351;28;20041;-69
2022/12/01 07:06:29;;;;;;;40.78;21.77;;;;;;;5.71;100.00;102576.91;5072518;28;20415;-69
2022/12/01 07:08:54;;;;;;;47.33;23.63;;;;;;;5.72;100.00;102577.75;5073872;28;20028;-69
2022/12/01 07:11:19;;;;;;;42.35;22.52;;;;;;;5.74;100.00;102579.28;5075331;28;20474;-69
2022/12/01 07:13:45;;;;;;;42.80;22.85;;;;;;;5.75;100.00;102581.00;5074708;28;20423;-68
2022/12/01 07:16:11;;;;;;;47.33;23.70;;;;;;;5.76;100.00;102582.66;5074596;28;20075;-69
2022/12/01 07:18:37;;;;;;;50.85;23.52;;;;;;;5.76;100.00;102585.34;5072910;28;21371;-68
2022/12/01 07:21:08;;;;;;;44.25;22.60;;;;;;;5.79;100.00;102586.91;5074838;28;20031;-68
2022/12/01 07:23:34;;;;;;;45.60;23.48;;;;;;;5.79;100.00;102582.38;5073191;28;20036;-69
2022/12/01 07:26:09;;;;;;;44.53;22.17;;;;;;;5.81;100.00;102590.28;5073895;28;20094;-69
2022/12/01 07:28:34;;;;;;;45.35;21.83;;;;;;;5.81;100.00;102593.81;5071847;28;20086;-67
2022/12/01 07:31:04;;;;;;;40.67;21.20;;;;;;;5.82;100.00;102598.19;5074921;28;20422;-69
2022/12/01 07:33:30;;;;;;;51.38;23.13;;;;;;;5.81;100.00;102593.81;5074179;28;20043;-69
2022/12/01 07:35:56;;;;;;;46.17;22.50;;;;;;;5.82;100.00;102587.44;5073032;28;20542;-69
2022/12/01 07:38:22;;;;;;;41.97;22.40;;;;;;;5.82;100.00;102587.44;5070454;28;20036;-69
2022/12/01 07:40:47;;;;;;;46.20;24.48;;;;;;;5.82;100.00;102590.13;5075223;28;20025;-69
2022/12/01 07:43:12;;;;;;;43.53;22.35;;;;;;;5.82;100.00;102591.97;5074008;28;20124;-69
2022/12/01 07:45:37;;;;;;;45.22;21.95;;;;;;;5.82;100.00;102600.03;5056149;28;20111;-69
2022/12/01 07:48:03;;;;;;;44.67;23.13;;;;;;;5.81;100.00;102596.50;5071349;28;20487;-69
2022/12/01 07:50:28;;;;;;;46.53;22.90;;;;;;;5.83;100.00;102599.03;5073433;28;20029;-69
2022/12/01 07:52:53;;;;;;;44.28;21.90;;;;;;;5.87;100.00;102597.72;5074720;28;20036;-69
2022/12/01 07:55:18;;;;;;;44.58;23.17;;;;;;;5.86;100.00;102598.75;5073435;28;20071;-68
2022/12/01 07:57:44;;;;;;;42.15;22.70;;;;;;;5.88;100.00;102601.28;5073016;28;20032;-69
2022/12/01 08:00:10;;;;;;;39.63;21.77;;;;;;;5.86;100.00;102604.13;5073428;28;20071;-69
2022/12/01 08:02:35;;;;;;;41.45;22.90;;;;;;;5.89;100.00;102602.94;5071247;28;20032;-70
2022/12/01 08:05:00;;;;;;;45.05;22.98;;;;;;;5.88;100.00;102607.50;5073183;28;20024;-69
2022/12/01 08:07:25;;;;;;;43.97;23.30;;;;;;;5.88;100.00;102612.88;5053869;28;20029;-70
2022/12/01 08:09:51;;;;;;;44.05;23.38;;;;;;;5.86;100.00;102618.38;5070840;28;20048;-69
2022/12/01 08:12:16;;;;;;;42.10;22.95;;;;;;;5.85;100.00;102621.22;5073169;28;20028;-68
2022/12/01 08:14:41;;;;;;;43.75;22.40;;;;;;;5.88;100.00;102623.59;5073451;28;20395;-70
2022/12/01 08:17:07;;;;;;;41.28;22.50;;;;;;;5.90;100.00;102624.28;5073994;28;20107;-69
2022/12/01 08:19:32;;;;;;;42.35;22.33;;;;;;;5.92;100.00;102627.69;5072397;28;20027;-69
2022/12/01 08:21:57;;;;;;;43.78;22.83;;;;;;;5.92;100.00;102621.47;5073150;28;20490;-70
2022/12/01 08:24:22;;;;;;;41.03;22.60;;;;;;;5.90;100.00;102624.28;5072611;28;20040;-69
2022/12/01 08:26:48;;;;;;;46.08;22.50;;;;;;;5.91;100.00;102627.84;5071595;28;20101;-69
2022/12/01 08:29:13;;;;;;;42.22;23.52;;;;;;;5.93;100.00;102625.84;5072957;28;20041;-69
2022/12/01 08:31:39;;;;;;;40.05;21.80;;;;;;;5.92;100.00;102622.31;5073973;28;20357;-69
2022/12/01 08:34:05;;;;;;;44.15;22.52;;;;;;;5.93;100.00;102629.38;5073709;28;20032;-69
2022/12/01 08:36:31;;;;;;;40.25;23.80;;;;;;;5.94;100.00;102627.53;5072804;28;20028;-69
2022/12/01 08:38:57;;;;;;;42.67;23.58;;;;;;;5.99;100.00;102638.72;5071379;28;20459;-69
2022/12/01 08:41:23;;;;;;;42.90;23.23;;;;;;;5.95;100.00;102635.47;5072805;28;20036;-69
2022/12/01 08:43:48;;;;;;;43.90;24.42;;;;;;;5.92;100.00;102634.88;5073700;28;20031;-69
2022/12/01 08:46:14;;;;;;;43.17;23.55;;;;;;;5.97;100.00;102638.84;5069886;28;20028;-70
2022/12/01 08:48:39;;;;;;;42.03;23.73;;;;;;;6.00;100.00;102637.72;5065676;28;20108;-70
2022/12/01 08:51:05;;;;;;;41.78;24.17;;;;;;;6.00;100.00;102638.56;5052691;28;20033;-69
2022/12/01 08:53:31;;;;;;;48.28;24.45;;;;;;;6.00;100.00;102637.72;5057999;28;20116;-73
2022/12/01 08:56:23;;;;;;;40.83;24.08;;;;;;;6.01;100.00;102640.25;5055788;28;20036;-72
2022/12/01 08:58:50;;;;;;;42.08;22.80;;;;;;;6.01;100.00;102634.03;5055132;28;20052;-73
2022/12/01 09:01:16;;;;;;;49.78;24.88;;;;;;;5.98;100.00;102634.34;5069822;28;20028;-69
2022/12/01 09:03:42;;;;;;;42.35;24.15;;;;;;;6.00;100.00;102632.34;5072866;28;20094;-69
2022/12/01 09:06:18;;;;;;;44.88;23.92;;;;;;;6.03;100.00;102637.41;5068233;28;20025;-69
2022/12/01 09:08:43;;;;;;;43.13;24.17;;;;;;;6.05;100.00;102635.41;5062869;28;20035;-70
2022/12/01 09:11:13;;;;;;;41.03;23.88;;;;;;;6.10;100.00;102635.81;5071470;28;20036;-70
2022/12/01 09:13:39;;;;;;;42.70;23.63;;;;;;;6.14;100.00;102639.03;5072690;28;20032;-70
2022/12/01 09:16:09;;;;;;;43.40;24.13;;;;;;;6.14;100.00;102639.88;5069717;28;20029;-69
2022/12/01 09:18:34;;;;;;;42.03;23.02;;;;;;;6.16;100.00;102643.28;5070725;28;20029;-70
2022/12/01 09:20:59;;;;;;;40.25;23.60;;;;;;;6.21;100.00;102640.97;5050666;28;20120;-69
2022/12/01 09:23:25;;;;;;;39.67;23.33;;;;;;;6.24;100.00;102645.22;5034374;28;20514;-70
2022/12/01 09:25:52;;;;;;;41.60;23.45;;;;;;;6.25;100.00;102641.53;5065591;28;20097;-70
2022/12/01 09:28:18;;;;;;;40.53;24.02;;;;;;;6.23;100.00;102646.19;5065459;28;20056;-76
2022/12/01 09:30:45;;;;;;;41.17;23.75;;;;;;;6.22;100.00;102647.22;5061498;28;20036;-72
2022/12/01 09:33:11;;;;;;;39.03;24.08;;;;;;;6.25;100.00;102643.34;5070708;28;20105;-70
2022/12/01 09:35:36;;;;;;;39.90;23.52;;;;;;;6.24;100.00;102653.28;5071187;28;20037;-70
2022/12/01 09:38:03;;;;;;;41.70;24.30;;;;;;;6.29;100.00;102644.75;5066839;28;20102;-70
2022/12/01 09:40:33;;;;;;;42.03;25.48;;;;;;;6.32;100.00;102655.19;5070750;28;20123;-70
2022/12/01 09:43:02;;;;;;;42.40;24.10;;;;;;;6.35;100.00;102649.50;5072256;28;20093;-70
2022/12/01 09:45:32;;;;;;;44.78;24.38;;;;;;;6.33;100.00;102654.22;5071234;28;20033;-70
2022/12/01 09:48:02;;;;;;;43.80;24.98;;;;;;;6.33;100.00;102654.22;5070803;28;20464;-71
2022/12/01 09:50:29;;;;;;;41.88;23.40;;;;;;;6.35;100.00;102657.56;5069752;28;20452;-75
2022/12/01 09:53:02;;;;;;;45.17;23.98;;;;;;;6.37;100.00;102644.81;5070388;28;20026;-72
2022/12/01 09:55:29;;;;;;;41.63;24.10;;;;;;;6.33;100.00;102640.75;5067809;28;20033;-71
2022/12/01 09:57:58;;;;;;;44.42;25.67;;;;;;;6.30;100.00;102641.06;5070488;28;20045;-71
2022/12/01 10:00:28;;;;;;;40.83;23.73;;;;;;;6.31;100.00;102640.91;5070388;28;20366;-70
2022/12/01 10:03:44;;;;;;;46.50;25.38;;;;;;;6.38;100.00;102638.44;5071593;28;20039;-72
2022/12/01 10:06:15;;;;;;;47.85;25.55;;;;;;;6.34;100.00;102642.44;5071764;28;20025;-70
2022/12/01 10:09:10;;;;;;;43.20;23.65;;;;;;;6.34;100.00;102640.59;5035171;28;20033;-72
2022/12/01 10:11:41;;;;;;;47.10;24.40;;;;;;;6.36;100.00;102643.97;5034964;28;20132;-70
2022/12/01 10:14:13;;;;;;;44.90;26.02;;;;;;;6.38;100.00;102643.81;5051880;28;20025;-70
2022/12/01 10:16:47;;;;;;;53.72;27.25;;;;;;;6.41;100.00;102640.00;5037994;28;20356;-71
2022/12/01 10:19:22;;;;;;;47.33;26.35;;;;;;;6.47;100.00;102639.38;5071751;28;20474;-70
2022/12/01 10:21:58;;;;;;;43.17;23.95;;;;;;;6.45;100.00;102631.47;5072355;28;20089;-70
2022/12/01 10:24:42;;;;;;;45.25;25.08;;;;;;;6.41;100.00;102630.06;5065400;28;20368;-70
2022/12/01 10:27:20;;;;;;;47.22;26.27;;;;;;;6.39;100.00;102629.41;5063384;28;20079;-71
2022/12/01 10:29:53;;;;;;;46.25;25.45;;;;;;;6.39;100.00;102632.09;5072043;28;20036;-71
2022/12/01 10:32:25;;;;;;;44.55;25.25;;;;;;;6.42;100.00;102626.41;5071747;28;20492;-72
2022/12/01 10:34:50;;;;;;;41.47;24.83;;;;;;;6.41;100.00;102619.31;5072410;28;20058;-72
2022/12/01 10:37:22;;;;;;;45.03;25.35;;;;;;;6.39;100.00;102619.47;5070989;28;20029;-74
2022/12/01 10:39:50;;;;;;;44.42;25.58;;;;;;;6.38;100.00;102619.63;5070900;28;20028;-72
2022/12/01 10:42:31;;;;;;;45.40;25.77;;;;;;;6.45;100.00;102617.19;5072427;28;20058;-71
2022/12/01 10:45:04;;;;;;;47.83;26.63;;;;;;;6.47;100.00;102612.50;5071245;28;20040;-70
2022/12/01 10:47:30;;;;;;;48.80;26.42;;;;;;;6.47;100.00;102613.31;5071823;28;20094;-74
2022/12/01 10:49:56;;;;;;;47.35;26.55;;;;;;;6.47;100.00;102610.63;5070448;28;20696;-71
2022/12/01 10:52:30;;;;;;;48.92;26.30;;;;;;;6.48;100.00;102609.63;5049975;28;20049;-69
2022/12/01 10:54:56;;;;;;;47.38;25.95;;;;;;;6.48;100.00;102608.81;5063483;28;20029;-71
2022/12/01 10:57:22;;;;;;;43.88;25.85;;;;;;;6.50;100.00;102618.38;5069631;28;20506;-71
2022/12/01 11:00:01;;;;;;;46.80;26.13;;;;;;;6.53;100.00;102603.78;5071532;28;20132;-71
2022/12/01 11:02:29;;;;;;;47.38;26.20;;;;;;;6.55;100.00;102605.34;5070507;28;20040;-72
2022/12/01 11:04:58;;;;;;;46.10;26.85;;;;;;;6.57;100.00;102606.03;5074299;28;20036;-71
2022/12/01 11:10:03;;;;;;;42.47;25.25;;;;;;;6.72;100.00;102600.94;5109050;27;20383;-68
2022/12/01 11:12:29;;;;;;;49.15;28.35;;;;;;;6.71;100.00;102599.22;5101082;28;20954;-69
2022/12/01 11:14:56;;;;;;;46.90;25.52;;;;;;;6.74;100.00;102603.47;5087232;28;20060;-70
2022/12/01 11:17:21;;;;;;;42.30;25.40;;;;;;;6.74;100.00;102606.16;5089341;28;20078;-69
2022/12/01 11:19:46;;;;;;;45.47;25.40;;;;;;;6.68;100.00;102602.22;5089345;28;20040;-68